sensor_id;sensor_type;location;lat;lon;timestamp;P1;durP1;ratioP1;P2;durP2;ratioP2
20229;SDS011;12195;55.790;37.572;2023-09-19T00:00:42;11.53;;;6.83;;
20229;SDS011;12195;55.790;37.572;2023-09-19T00:03:28;12.93;;;6.78;;
20229;SDS011;12195;55.790;37.572;2023-09-19T00:06:13;9.88;;;6.05;;
20229;SDS011;12195;55.790;37.572;2023-09-19T00:08:46;13.98;;;6.28;;
20229;SDS011;12195;55.790;37.572;2023-09-19T00:11:30;10.40;;;6.45;;
20229;SDS011;12195;55.790;37.572;2023-09-19T00:14:17;15.40;;;6.97;;
20229;SDS011;12195;55.790;37.572;2023-09-19T00:16:50;10.05;;;6.22;;
20229;SDS011;12195;55.790;37.572;2023-09-19T00:19:36;15.73;;;8.27;;
20229;SDS011;12195;55.790;37.572;2023-09-19T00:22:09;14.78;;;6.55;;
20229;SDS011;12195;55.790;37.572;2023-09-19T00:24:55;11.55;;;6.78;;
20229;SDS011;12195;55.790;37.572;2023-09-19T00:27:28;13.70;;;7.08;;
20229;SDS011;12195;55.790;37.572;2023-09-19T00:30:12;18.37;;;7.08;;
20229;SDS011;12195;55.790;37.572;2023-09-19T00:32:48;13.35;;;6.95;;
20229;SDS011;12195;55.790;37.572;2023-09-19T00:35:34;12.98;;;6.97;;
20229;SDS011;12195;55.790;37.572;2023-09-19T00:38:07;14.40;;;7.12;;
20229;SDS011;12195;55.790;37.572;2023-09-19T00:40:54;13.28;;;8.10;;
20229;SDS011;12195;55.790;37.572;2023-09-19T00:43:30;12.47;;;7.20;;
20229;SDS011;12195;55.790;37.572;2023-09-19T00:46:16;14.98;;;7.72;;
20229;SDS011;12195;55.790;37.572;2023-09-19T00:48:49;13.38;;;7.33;;
20229;SDS011;12195;55.790;37.572;2023-09-19T00:51:33;16.20;;;7.70;;
20229;SDS011;12195;55.790;37.572;2023-09-19T00:54:07;12.70;;;7.33;;
20229;SDS011;12195;55.790;37.572;2023-09-19T00:56:52;14.43;;;7.40;;
20229;SDS011;12195;55.790;37.572;2023-09-19T00:59:25;13.15;;;7.58;;
20229;SDS011;12195;55.790;37.572;2023-09-19T01:02:12;12.82;;;8.75;;
20229;SDS011;12195;55.790;37.572;2023-09-19T01:04:45;8.93;;;7.17;;
20229;SDS011;12195;55.790;37.572;2023-09-19T01:07:29;15.13;;;7.72;;
20229;SDS011;12195;55.790;37.572;2023-09-19T01:10:07;12.55;;;7.78;;
20229;SDS011;12195;55.790;37.572;2023-09-19T01:22:09;11.55;;;6.90;;
20229;SDS011;12195;55.790;37.572;2023-09-19T01:31:11;9.30;;;6.65;;
20229;SDS011;12195;55.790;37.572;2023-09-19T01:33:57;10.25;;;6.45;;
20229;SDS011;12195;55.790;37.572;2023-09-19T01:36:32;10.58;;;6.40;;
20229;SDS011;12195;55.790;37.572;2023-09-19T01:39:18;9.95;;;6.47;;
20229;SDS011;12195;55.790;37.572;2023-09-19T01:41:54;12.00;;;6.50;;
20229;SDS011;12195;55.790;37.572;2023-09-19T01:44:44;8.88;;;6.30;;
20229;SDS011;12195;55.790;37.572;2023-09-19T01:47:31;9.95;;;6.05;;
20229;SDS011;12195;55.790;37.572;2023-09-19T01:53:22;18.12;;;8.65;;
20229;SDS011;12195;55.790;37.572;2023-09-19T01:55:55;11.65;;;5.83;;
20229;SDS011;12195;55.790;37.572;2023-09-19T01:58:42;10.72;;;6.47;;
20229;SDS011;12195;55.790;37.572;2023-09-19T02:01:18;13.10;;;7.10;;
20229;SDS011;12195;55.790;37.572;2023-09-19T02:04:05;11.88;;;6.53;;
20229;SDS011;12195;55.790;37.572;2023-09-19T02:06:42;10.08;;;6.28;;
20229;SDS011;12195;55.790;37.572;2023-09-19T02:09:27;9.18;;;6.47;;
20229;SDS011;12195;55.790;37.572;2023-09-19T02:12:11;10.05;;;6.20;;
20229;SDS011;12195;55.790;37.572;2023-09-19T02:14:45;9.10;;;6.60;;
20229;SDS011;12195;55.790;37.572;2023-09-19T02:17:31;11.08;;;6.15;;
20229;SDS011;12195;55.790;37.572;2023-09-19T02:20:05;11.25;;;6.92;;
20229;SDS011;12195;55.790;37.572;2023-09-19T02:22:49;14.38;;;7.05;;
20229;SDS011;12195;55.790;37.572;2023-09-19T02:25:34;9.33;;;6.42;;
20229;SDS011;12195;55.790;37.572;2023-09-19T02:28:10;10.08;;;6.80;;
20229;SDS011;12195;55.790;37.572;2023-09-19T02:30:43;10.13;;;6.65;;
20229;SDS011;12195;55.790;37.572;2023-09-19T02:33:29;10.03;;;6.85;;
20229;SDS011;12195;55.790;37.572;2023-09-19T02:36:15;14.13;;;6.42;;
20229;SDS011;12195;55.790;37.572;2023-09-19T02:38:49;10.25;;;6.83;;
20229;SDS011;12195;55.790;37.572;2023-09-19T02:41:33;9.55;;;6.92;;
20229;SDS011;12195;55.790;37.572;2023-09-19T02:44:06;9.65;;;6.40;;
20229;SDS011;12195;55.790;37.572;2023-09-19T02:46:49;9.68;;;6.90;;
20229;SDS011;12195;55.790;37.572;2023-09-19T02:49:22;9.63;;;6.58;;
20229;SDS011;12195;55.790;37.572;2023-09-19T02:52:07;13.85;;;7.30;;
20229;SDS011;12195;55.790;37.572;2023-09-19T02:54:41;9.00;;;6.72;;
20229;SDS011;12195;55.790;37.572;2023-09-19T02:57:25;11.15;;;6.72;;
20229;SDS011;12195;55.790;37.572;2023-09-19T03:00:10;12.20;;;6.75;;
20229;SDS011;12195;55.790;37.572;2023-09-19T03:02:56;9.80;;;6.72;;
20229;SDS011;12195;55.790;37.572;2023-09-19T03:05:31;12.40;;;7.58;;
20229;SDS011;12195;55.790;37.572;2023-09-19T03:08:13;11.95;;;7.12;;
20229;SDS011;12195;55.790;37.572;2023-09-19T03:10:49;10.40;;;7.30;;
20229;SDS011;12195;55.790;37.572;2023-09-19T03:13:32;12.70;;;6.92;;
20229;SDS011;12195;55.790;37.572;2023-09-19T03:16:07;10.20;;;7.03;;
20229;SDS011;12195;55.790;37.572;2023-09-19T03:18:39;11.05;;;7.03;;
20229;SDS011;12195;55.790;37.572;2023-09-19T03:21:26;12.75;;;7.95;;
20229;SDS011;12195;55.790;37.572;2023-09-19T03:24:11;9.88;;;7.42;;
20229;SDS011;12195;55.790;37.572;2023-09-19T03:26:45;11.78;;;7.65;;
20229;SDS011;12195;55.790;37.572;2023-09-19T03:29:31;12.43;;;7.95;;
20229;SDS011;12195;55.790;37.572;2023-09-19T03:32:06;13.90;;;7.40;;
20229;SDS011;12195;55.790;37.572;2023-09-19T03:34:52;11.05;;;8.18;;
20229;SDS011;12195;55.790;37.572;2023-09-19T03:37:25;13.00;;;7.17;;
20229;SDS011;12195;55.790;37.572;2023-09-19T03:40:11;12.30;;;6.85;;
20229;SDS011;12195;55.790;37.572;2023-09-19T03:42:46;10.20;;;7.12;;
20229;SDS011;12195;55.790;37.572;2023-09-19T03:45:30;11.43;;;6.83;;
20229;SDS011;12195;55.790;37.572;2023-09-19T03:48:10;12.33;;;7.47;;
20229;SDS011;12195;55.790;37.572;2023-09-19T03:50:55;11.20;;;8.13;;
20229;SDS011;12195;55.790;37.572;2023-09-19T03:53:38;10.40;;;6.92;;
20229;SDS011;12195;55.790;37.572;2023-09-19T03:56:12;13.43;;;7.35;;
20229;SDS011;12195;55.790;37.572;2023-09-19T03:58:57;10.78;;;7.05;;
20229;SDS011;12195;55.790;37.572;2023-09-19T04:01:30;10.75;;;6.85;;
20229;SDS011;12195;55.790;37.572;2023-09-19T04:04:16;16.45;;;7.90;;
20229;SDS011;12195;55.790;37.572;2023-09-19T04:06:51;12.78;;;7.45;;
20229;SDS011;12195;55.790;37.572;2023-09-19T04:09:34;12.50;;;6.75;;
20229;SDS011;12195;55.790;37.572;2023-09-19T04:12:07;10.10;;;6.33;;
20229;SDS011;12195;55.790;37.572;2023-09-19T04:14:52;17.48;;;7.05;;
20229;SDS011;12195;55.790;37.572;2023-09-19T04:17:25;18.07;;;7.20;;
20229;SDS011;12195;55.790;37.572;2023-09-19T04:20:12;13.20;;;8.40;;
20229;SDS011;12195;55.790;37.572;2023-09-19T04:22:47;11.45;;;7.55;;
20229;SDS011;12195;55.790;37.572;2023-09-19T04:25:33;12.05;;;6.83;;
20229;SDS011;12195;55.790;37.572;2023-09-19T04:28:08;12.05;;;7.60;;
20229;SDS011;12195;55.790;37.572;2023-09-19T04:30:57;13.45;;;7.50;;
20229;SDS011;12195;55.790;37.572;2023-09-19T04:33:42;13.40;;;6.87;;
20229;SDS011;12195;55.790;37.572;2023-09-19T04:36:16;17.00;;;7.87;;
20229;SDS011;12195;55.790;37.572;2023-09-19T04:39:00;16.73;;;9.18;;
20229;SDS011;12195;55.790;37.572;2023-09-19T04:41:35;13.40;;;8.83;;
20229;SDS011;12195;55.790;37.572;2023-09-19T04:44:20;14.13;;;8.48;;
20229;SDS011;12195;55.790;37.572;2023-09-19T04:46:55;15.43;;;9.33;;
20229;SDS011;12195;55.790;37.572;2023-09-19T04:49:40;15.93;;;8.93;;
20229;SDS011;12195;55.790;37.572;2023-09-19T04:52:13;16.45;;;9.53;;
20229;SDS011;12195;55.790;37.572;2023-09-19T04:54:59;11.97;;;8.58;;
20229;SDS011;12195;55.790;37.572;2023-09-19T04:57:32;14.53;;;8.98;;
20229;SDS011;12195;55.790;37.572;2023-09-19T05:00:18;16.75;;;9.45;;
20229;SDS011;12195;55.790;37.572;2023-09-19T05:02:56;14.53;;;9.10;;
20229;SDS011;12195;55.790;37.572;2023-09-19T05:05:44;25.57;;;10.78;;
20229;SDS011;12195;55.790;37.572;2023-09-19T05:08:18;14.40;;;9.45;;
20229;SDS011;12195;55.790;37.572;2023-09-19T05:11:05;14.20;;;9.45;;
20229;SDS011;12195;55.790;37.572;2023-09-19T05:13:40;22.10;;;10.58;;
20229;SDS011;12195;55.790;37.572;2023-09-19T05:16:24;16.35;;;8.33;;
20229;SDS011;12195;55.790;37.572;2023-09-19T05:19:08;16.42;;;8.70;;
20229;SDS011;12195;55.790;37.572;2023-09-19T05:21:43;14.28;;;8.08;;
20229;SDS011;12195;55.790;37.572;2023-09-19T05:24:19;17.35;;;8.35;;
20229;SDS011;12195;55.790;37.572;2023-09-19T05:27:05;14.60;;;9.15;;
20229;SDS011;12195;55.790;37.572;2023-09-19T05:29:38;14.35;;;8.13;;
20229;SDS011;12195;55.790;37.572;2023-09-19T05:32:25;11.93;;;7.97;;
20229;SDS011;12195;55.790;37.572;2023-09-19T05:34:59;15.55;;;8.03;;
20229;SDS011;12195;55.790;37.572;2023-09-19T05:37:47;12.93;;;7.40;;
20229;SDS011;12195;55.790;37.572;2023-09-19T05:40:22;12.13;;;6.95;;
20229;SDS011;12195;55.790;37.572;2023-09-19T05:43:08;17.75;;;7.60;;
20229;SDS011;12195;55.790;37.572;2023-09-19T05:45:41;17.65;;;7.75;;
20229;SDS011;12195;55.790;37.572;2023-09-19T05:48:28;15.43;;;6.95;;
20229;SDS011;12195;55.790;37.572;2023-09-19T05:51:02;14.77;;;7.60;;
20229;SDS011;12195;55.790;37.572;2023-09-19T05:53:47;13.03;;;8.28;;
20229;SDS011;12195;55.790;37.572;2023-09-19T05:56:33;14.10;;;8.73;;
20229;SDS011;12195;55.790;37.572;2023-09-19T05:59:19;13.43;;;7.30;;
20229;SDS011;12195;55.790;37.572;2023-09-19T06:02:03;11.20;;;6.72;;
20229;SDS011;12195;55.790;37.572;2023-09-19T06:04:49;16.63;;;8.57;;
20229;SDS011;12195;55.790;37.572;2023-09-19T06:07:24;12.20;;;8.10;;
20229;SDS011;12195;55.790;37.572;2023-09-19T06:10:11;22.22;;;10.20;;
20229;SDS011;12195;55.790;37.572;2023-09-19T06:12:57;13.57;;;7.80;;
20229;SDS011;12195;55.790;37.572;2023-09-19T06:15:30;15.30;;;7.65;;
20229;SDS011;12195;55.790;37.572;2023-09-19T06:18:16;14.28;;;8.25;;
20229;SDS011;12195;55.790;37.572;2023-09-19T06:20:51;12.13;;;6.97;;
20229;SDS011;12195;55.790;37.572;2023-09-19T06:23:36;15.50;;;8.10;;
20229;SDS011;12195;55.790;37.572;2023-09-19T06:26:22;15.60;;;8.38;;
20229;SDS011;12195;55.790;37.572;2023-09-19T06:28:58;12.65;;;7.50;;
20229;SDS011;12195;55.790;37.572;2023-09-19T06:31:43;14.00;;;7.10;;
20229;SDS011;12195;55.790;37.572;2023-09-19T06:34:28;17.67;;;8.03;;
20229;SDS011;12195;55.790;37.572;2023-09-19T06:37:02;17.87;;;7.20;;
20229;SDS011;12195;55.790;37.572;2023-09-19T06:39:46;17.87;;;7.33;;
20229;SDS011;12195;55.790;37.572;2023-09-19T06:42:20;10.75;;;7.08;;
20229;SDS011;12195;55.790;37.572;2023-09-19T06:45:05;14.78;;;6.60;;
20229;SDS011;12195;55.790;37.572;2023-09-19T06:47:51;12.45;;;7.37;;
20229;SDS011;12195;55.790;37.572;2023-09-19T06:50:35;14.13;;;7.78;;
20229;SDS011;12195;55.790;37.572;2023-09-19T06:53:11;13.35;;;6.83;;
20229;SDS011;12195;55.790;37.572;2023-09-19T06:55:55;17.65;;;7.92;;
20229;SDS011;12195;55.790;37.572;2023-09-19T06:58:29;19.15;;;9.15;;
20229;SDS011;12195;55.790;37.572;2023-09-19T07:01:15;15.67;;;8.23;;
20229;SDS011;12195;55.790;37.572;2023-09-19T07:03:49;19.92;;;8.15;;
20229;SDS011;12195;55.790;37.572;2023-09-19T07:06:36;11.85;;;7.53;;
20229;SDS011;12195;55.790;37.572;2023-09-19T07:09:25;16.25;;;8.48;;
20229;SDS011;12195;55.790;37.572;2023-09-19T07:11:59;15.03;;;8.23;;
20229;SDS011;12195;55.790;37.572;2023-09-19T07:14:46;15.70;;;7.65;;
20229;SDS011;12195;55.790;37.572;2023-09-19T07:17:20;11.45;;;7.75;;
20229;SDS011;12195;55.790;37.572;2023-09-19T07:20:06;14.03;;;8.53;;
20229;SDS011;12195;55.790;37.572;2023-09-19T07:22:41;15.23;;;8.90;;
20229;SDS011;12195;55.790;37.572;2023-09-19T07:25:29;14.53;;;8.98;;
20229;SDS011;12195;55.790;37.572;2023-09-19T07:28:12;17.73;;;10.30;;
20229;SDS011;12195;55.790;37.572;2023-09-19T07:30:47;18.48;;;9.03;;
20229;SDS011;12195;55.790;37.572;2023-09-19T07:33:31;13.28;;;8.50;;
20229;SDS011;12195;55.790;37.572;2023-09-19T07:36:04;15.05;;;9.05;;
20229;SDS011;12195;55.790;37.572;2023-09-19T07:38:49;18.65;;;9.10;;
20229;SDS011;12195;55.790;37.572;2023-09-19T07:41:23;18.70;;;9.38;;
20229;SDS011;12195;55.790;37.572;2023-09-19T07:44:09;16.20;;;9.23;;
20229;SDS011;12195;55.790;37.572;2023-09-19T07:46:58;12.82;;;8.70;;
20229;SDS011;12195;55.790;37.572;2023-09-19T07:49:46;19.62;;;9.65;;
20229;SDS011;12195;55.790;37.572;2023-09-19T07:52:31;15.65;;;8.95;;
20229;SDS011;12195;55.790;37.572;2023-09-19T07:55:05;14.13;;;9.97;;
20229;SDS011;12195;55.790;37.572;2023-09-19T07:57:50;17.65;;;9.13;;
20229;SDS011;12195;55.790;37.572;2023-09-19T08:00:25;11.70;;;8.50;;
20229;SDS011;12195;55.790;37.572;2023-09-19T08:03:12;18.73;;;9.30;;
20229;SDS011;12195;55.790;37.572;2023-09-19T08:05:47;17.25;;;9.68;;
20229;SDS011;12195;55.790;37.572;2023-09-19T08:08:21;22.97;;;10.33;;
20229;SDS011;12195;55.790;37.572;2023-09-19T08:10:57;13.65;;;8.58;;
20229;SDS011;12195;55.790;37.572;2023-09-19T08:13:43;19.27;;;10.20;;
20229;SDS011;12195;55.790;37.572;2023-09-19T08:16:30;15.68;;;8.68;;
20229;SDS011;12195;55.790;37.572;2023-09-19T08:19:15;18.30;;;9.30;;
20229;SDS011;12195;55.790;37.572;2023-09-19T08:21:50;16.97;;;8.53;;
20229;SDS011;12195;55.790;37.572;2023-09-19T08:24:35;15.72;;;8.63;;
20229;SDS011;12195;55.790;37.572;2023-09-19T08:27:10;14.43;;;8.83;;
20229;SDS011;12195;55.790;37.572;2023-09-19T08:29:57;17.73;;;8.93;;
20229;SDS011;12195;55.790;37.572;2023-09-19T08:32:32;25.30;;;12.68;;
20229;SDS011;12195;55.790;37.572;2023-09-19T08:35:20;21.25;;;10.85;;
20229;SDS011;12195;55.790;37.572;2023-09-19T08:38:04;15.15;;;9.55;;
20229;SDS011;12195;55.790;37.572;2023-09-19T08:40:37;20.55;;;9.93;;
20229;SDS011;12195;55.790;37.572;2023-09-19T08:43:28;17.40;;;9.10;;
20229;SDS011;12195;55.790;37.572;2023-09-19T08:49:03;19.37;;;9.30;;
20229;SDS011;12195;55.790;37.572;2023-09-19T08:51:41;22.35;;;10.40;;
20229;SDS011;12195;55.790;37.572;2023-09-19T08:54:28;18.75;;;9.50;;
20229;SDS011;12195;55.790;37.572;2023-09-19T08:57:05;17.42;;;9.98;;
20229;SDS011;12195;55.790;37.572;2023-09-19T08:59:43;16.05;;;9.90;;
20229;SDS011;12195;55.790;37.572;2023-09-19T09:02:29;13.80;;;9.25;;
20229;SDS011;12195;55.790;37.572;2023-09-19T09:05:19;14.30;;;9.28;;
20229;SDS011;12195;55.790;37.572;2023-09-19T09:07:55;14.47;;;9.05;;
20229;SDS011;12195;55.790;37.572;2023-09-19T09:10:44;13.85;;;9.53;;
20229;SDS011;12195;55.790;37.572;2023-09-19T09:13:20;18.73;;;10.05;;
20229;SDS011;12195;55.790;37.572;2023-09-19T09:16:05;15.63;;;9.43;;
20229;SDS011;12195;55.790;37.572;2023-09-19T09:18:55;18.40;;;9.60;;
20229;SDS011;12195;55.790;37.572;2023-09-19T09:21:33;16.00;;;8.90;;
20229;SDS011;12195;55.790;37.572;2023-09-19T09:24:30;17.48;;;9.00;;
20229;SDS011;12195;55.790;37.572;2023-09-19T09:27:17;16.50;;;8.68;;
20229;SDS011;12195;55.790;37.572;2023-09-19T09:30:32;17.80;;;9.73;;
20229;SDS011;12195;55.790;37.572;2023-09-19T09:33:10;14.03;;;9.20;;
20229;SDS011;12195;55.790;37.572;2023-09-19T09:35:57;13.90;;;9.00;;
20229;SDS011;12195;55.790;37.572;2023-09-19T09:38:45;18.95;;;9.50;;
20229;SDS011;12195;55.790;37.572;2023-09-19T09:41:21;16.02;;;9.00;;
20229;SDS011;12195;55.790;37.572;2023-09-19T09:44:19;17.52;;;9.03;;
20229;SDS011;12195;55.790;37.572;2023-09-19T09:46:54;17.35;;;9.18;;
20229;SDS011;12195;55.790;37.572;2023-09-19T09:49:48;16.23;;;9.93;;
20229;SDS011;12195;55.790;37.572;2023-09-19T09:52:30;12.65;;;9.38;;
20229;SDS011;12195;55.790;37.572;2023-09-19T09:55:22;21.33;;;11.10;;
20229;SDS011;12195;55.790;37.572;2023-09-19T10:03:58;13.28;;;8.65;;
20229;SDS011;12195;55.790;37.572;2023-09-19T10:06:40;13.88;;;8.40;;
20229;SDS011;12195;55.790;37.572;2023-09-19T10:09:28;14.05;;;9.53;;
20229;SDS011;12195;55.790;37.572;2023-09-19T10:12:18;12.98;;;9.58;;
20229;SDS011;12195;55.790;37.572;2023-09-19T10:15:11;18.98;;;9.70;;
20229;SDS011;12195;55.790;37.572;2023-09-19T10:18:01;14.80;;;8.65;;
20229;SDS011;12195;55.790;37.572;2023-09-19T10:20:44;14.45;;;9.50;;
20229;SDS011;12195;55.790;37.572;2023-09-19T10:23:34;14.25;;;9.18;;
20229;SDS011;12195;55.790;37.572;2023-09-19T10:26:34;14.78;;;10.55;;
20229;SDS011;12195;55.790;37.572;2023-09-19T10:29:15;15.08;;;9.73;;
20229;SDS011;12195;55.790;37.572;2023-09-19T10:32:14;13.25;;;9.20;;
20229;SDS011;12195;55.790;37.572;2023-09-19T10:37:31;15.95;;;9.85;;
20229;SDS011;12195;55.790;37.572;2023-09-19T10:40:20;16.90;;;8.73;;
20229;SDS011;12195;55.790;37.572;2023-09-19T10:43:16;16.57;;;8.83;;
20229;SDS011;12195;55.790;37.572;2023-09-19T10:45:57;17.20;;;9.75;;
20229;SDS011;12195;55.790;37.572;2023-09-19T10:48:52;15.90;;;9.85;;
20229;SDS011;12195;55.790;37.572;2023-09-19T10:51:41;19.02;;;9.38;;
20229;SDS011;12195;55.790;37.572;2023-09-19T10:54:37;17.67;;;9.28;;
20229;SDS011;12195;55.790;37.572;2023-09-19T10:57:42;14.47;;;9.00;;
20229;SDS011;12195;55.790;37.572;2023-09-19T11:00:49;17.87;;;9.68;;
20229;SDS011;12195;55.790;37.572;2023-09-19T11:03:45;14.85;;;8.70;;
20229;SDS011;12195;55.790;37.572;2023-09-19T11:06:38;22.48;;;11.68;;
20229;SDS011;12195;55.790;37.572;2023-09-19T11:09:42;18.87;;;10.35;;
20229;SDS011;12195;55.790;37.572;2023-09-19T11:18:57;27.62;;;11.38;;
20229;SDS011;12195;55.790;37.572;2023-09-19T11:21:39;15.48;;;9.20;;
20229;SDS011;12195;55.790;37.572;2023-09-19T11:24:29;13.05;;;9.45;;
20229;SDS011;12195;55.790;37.572;2023-09-19T11:27:28;20.82;;;9.30;;
20229;SDS011;12195;55.790;37.572;2023-09-19T11:30:26;19.23;;;10.15;;
20229;SDS011;12195;55.790;37.572;2023-09-19T11:36:03;15.83;;;8.88;;
20229;SDS011;12195;55.790;37.572;2023-09-19T11:38:58;21.42;;;8.38;;
20229;SDS011;12195;55.790;37.572;2023-09-19T11:42:05;14.07;;;8.80;;
20229;SDS011;12195;55.790;37.572;2023-09-19T11:44:51;12.70;;;9.03;;
20229;SDS011;12195;55.790;37.572;2023-09-19T11:47:41;15.72;;;8.93;;
20229;SDS011;12195;55.790;37.572;2023-09-19T11:50:18;14.13;;;9.03;;
20229;SDS011;12195;55.790;37.572;2023-09-19T11:53:08;14.10;;;9.50;;
20229;SDS011;12195;55.790;37.572;2023-09-19T11:56:01;16.05;;;9.40;;
20229;SDS011;12195;55.790;37.572;2023-09-19T12:01:56;14.35;;;8.38;;
20229;SDS011;12195;55.790;37.572;2023-09-19T12:04:43;23.98;;;8.60;;
20229;SDS011;12195;55.790;37.572;2023-09-19T12:07:22;19.02;;;9.08;;
20229;SDS011;12195;55.790;37.572;2023-09-19T12:10:17;13.83;;;8.98;;
20229;SDS011;12195;55.790;37.572;2023-09-19T12:12:57;29.72;;;10.50;;
20229;SDS011;12195;55.790;37.572;2023-09-19T12:15:51;16.05;;;8.33;;
20229;SDS011;12195;55.790;37.572;2023-09-19T12:18:47;17.55;;;9.25;;
20229;SDS011;12195;55.790;37.572;2023-09-19T12:21:29;15.50;;;9.10;;
20229;SDS011;12195;55.790;37.572;2023-09-19T12:24:12;14.93;;;8.83;;
20229;SDS011;12195;55.790;37.572;2023-09-19T12:27:08;16.02;;;9.58;;
20229;SDS011;12195;55.790;37.572;2023-09-19T12:29:53;19.73;;;8.93;;
20229;SDS011;12195;55.790;37.572;2023-09-19T12:33:08;14.43;;;7.97;;
20229;SDS011;12195;55.790;37.572;2023-09-19T12:35:42;13.43;;;8.00;;
20229;SDS011;12195;55.790;37.572;2023-09-19T12:38:32;13.18;;;7.20;;
20229;SDS011;12195;55.790;37.572;2023-09-19T12:41:11;18.90;;;7.65;;
20229;SDS011;12195;55.790;37.572;2023-09-19T12:44:02;13.03;;;7.58;;
20229;SDS011;12195;55.790;37.572;2023-09-19T12:53:14;11.28;;;7.08;;
20229;SDS011;12195;55.790;37.572;2023-09-19T12:56:06;13.98;;;6.75;;
20229;SDS011;12195;55.790;37.572;2023-09-19T12:58:58;15.35;;;7.28;;
20229;SDS011;12195;55.790;37.572;2023-09-19T13:01:37;18.73;;;7.53;;
20229;SDS011;12195;55.790;37.572;2023-09-19T13:04:33;10.88;;;6.00;;
20229;SDS011;12195;55.790;37.572;2023-09-19T13:10:25;12.13;;;6.78;;
20229;SDS011;12195;55.790;37.572;2023-09-19T13:13:32;10.72;;;6.22;;
20229;SDS011;12195;55.790;37.572;2023-09-19T13:16:22;13.45;;;6.53;;
20229;SDS011;12195;55.790;37.572;2023-09-19T13:19:40;10.70;;;6.00;;
20229;SDS011;12195;55.790;37.572;2023-09-19T13:22:40;11.83;;;6.20;;
20229;SDS011;12195;55.790;37.572;2023-09-19T13:25:41;14.55;;;6.47;;
20229;SDS011;12195;55.790;37.572;2023-09-19T13:32:09;13.00;;;6.87;;
20229;SDS011;12195;55.790;37.572;2023-09-19T13:35:01;11.65;;;5.60;;
20229;SDS011;12195;55.790;37.572;2023-09-19T13:38:20;11.90;;;6.55;;
20229;SDS011;12195;55.790;37.572;2023-09-19T13:44:30;10.88;;;6.47;;
20229;SDS011;12195;55.790;37.572;2023-09-19T13:47:51;10.50;;;6.50;;
20229;SDS011;12195;55.790;37.572;2023-09-19T13:50:38;13.65;;;6.85;;
20229;SDS011;12195;55.790;37.572;2023-09-19T13:53:30;14.68;;;8.10;;
20229;SDS011;12195;55.790;37.572;2023-09-19T13:56:26;18.45;;;6.53;;
20229;SDS011;12195;55.790;37.572;2023-09-19T13:59:24;16.30;;;6.72;;
20229;SDS011;12195;55.790;37.572;2023-09-19T14:02:27;16.48;;;6.92;;
20229;SDS011;12195;55.790;37.572;2023-09-19T14:05:27;11.93;;;6.40;;
20229;SDS011;12195;55.790;37.572;2023-09-19T14:08:15;9.88;;;6.33;;
20229;SDS011;12195;55.790;37.572;2023-09-19T14:10:59;16.87;;;6.25;;
20229;SDS011;12195;55.790;37.572;2023-09-19T14:14:00;12.55;;;6.67;;
20229;SDS011;12195;55.790;37.572;2023-09-19T14:17:05;20.77;;;6.83;;
20229;SDS011;12195;55.790;37.572;2023-09-19T14:19:45;14.75;;;6.55;;
20229;SDS011;12195;55.790;37.572;2023-09-19T14:22:32;11.38;;;6.05;;
20229;SDS011;12195;55.790;37.572;2023-09-19T14:25:09;9.98;;;5.00;;
20229;SDS011;12195;55.790;37.572;2023-09-19T14:27:58;9.50;;;4.58;;
20229;SDS011;12195;55.790;37.572;2023-09-19T14:30:45;9.35;;;5.00;;
20229;SDS011;12195;55.790;37.572;2023-09-19T14:33:37;8.05;;;4.78;;
20229;SDS011;12195;55.790;37.572;2023-09-19T14:36:13;10.13;;;4.75;;
20229;SDS011;12195;55.790;37.572;2023-09-19T14:39:03;8.33;;;5.47;;
20229;SDS011;12195;55.790;37.572;2023-09-19T14:41:53;7.87;;;4.50;;
20229;SDS011;12195;55.790;37.572;2023-09-19T14:44:29;10.03;;;5.47;;
20229;SDS011;12195;55.790;37.572;2023-09-19T14:47:34;7.47;;;4.58;;
20229;SDS011;12195;55.790;37.572;2023-09-19T14:50:15;7.75;;;4.35;;
20229;SDS011;12195;55.790;37.572;2023-09-19T14:56:06;12.43;;;5.97;;
20229;SDS011;12195;55.790;37.572;2023-09-19T14:58:54;11.97;;;6.72;;
20229;SDS011;12195;55.790;37.572;2023-09-19T15:01:33;9.55;;;6.08;;
20229;SDS011;12195;55.790;37.572;2023-09-19T15:04:19;10.80;;;6.40;;
20229;SDS011;12195;55.790;37.572;2023-09-19T15:07:20;14.07;;;7.05;;
20229;SDS011;12195;55.790;37.572;2023-09-19T15:10:08;11.05;;;6.47;;
20229;SDS011;12195;55.790;37.572;2023-09-19T15:12:49;17.92;;;6.60;;
20229;SDS011;12195;55.790;37.572;2023-09-19T15:18:32;13.43;;;6.40;;
20229;SDS011;12195;55.790;37.572;2023-09-19T15:21:15;13.93;;;6.45;;
20229;SDS011;12195;55.790;37.572;2023-09-19T15:24:09;8.73;;;5.72;;
20229;SDS011;12195;55.790;37.572;2023-09-19T15:26:42;19.05;;;6.67;;
20229;SDS011;12195;55.790;37.572;2023-09-19T15:29:29;11.63;;;6.28;;
20229;SDS011;12195;55.790;37.572;2023-09-19T15:32:04;12.50;;;7.30;;
20229;SDS011;12195;55.790;37.572;2023-09-19T15:34:53;9.93;;;6.40;;
20229;SDS011;12195;55.790;37.572;2023-09-19T15:37:25;11.10;;;6.08;;
20229;SDS011;12195;55.790;37.572;2023-09-19T15:40:14;14.47;;;6.08;;
20229;SDS011;12195;55.790;37.572;2023-09-19T15:43:00;15.03;;;6.25;;
20229;SDS011;12195;55.790;37.572;2023-09-19T15:45:36;19.27;;;5.75;;
20229;SDS011;12195;55.790;37.572;2023-09-19T15:48:24;11.45;;;5.40;;
20229;SDS011;12195;55.790;37.572;2023-09-19T15:51:10;11.45;;;6.80;;
20229;SDS011;12195;55.790;37.572;2023-09-19T15:53:46;14.63;;;5.97;;
20229;SDS011;12195;55.790;37.572;2023-09-19T15:56:34;13.50;;;7.25;;
20229;SDS011;12195;55.790;37.572;2023-09-19T15:59:09;19.12;;;7.28;;
20229;SDS011;12195;55.790;37.572;2023-09-19T16:01:58;11.18;;;6.87;;
20229;SDS011;12195;55.790;37.572;2023-09-19T16:04:34;16.35;;;7.90;;
20229;SDS011;12195;55.790;37.572;2023-09-19T16:07:10;17.55;;;7.70;;
20229;SDS011;12195;55.790;37.572;2023-09-19T16:10:01;18.17;;;7.53;;
20229;SDS011;12195;55.790;37.572;2023-09-19T16:12:35;24.27;;;7.97;;
20229;SDS011;12195;55.790;37.572;2023-09-19T16:15:22;14.63;;;6.60;;
20229;SDS011;12195;55.790;37.572;2023-09-19T16:18:09;15.45;;;8.35;;
20229;SDS011;12195;55.790;37.572;2023-09-19T16:20:51;13.60;;;7.60;;
20229;SDS011;12195;55.790;37.572;2023-09-19T16:23:26;13.58;;;8.20;;
20229;SDS011;12195;55.790;37.572;2023-09-19T16:26:20;20.08;;;7.85;;
20229;SDS011;12195;55.790;37.572;2023-09-19T16:28:56;16.65;;;8.43;;
20229;SDS011;12195;55.790;37.572;2023-09-19T16:31:34;15.93;;;8.10;;
20229;SDS011;12195;55.790;37.572;2023-09-19T16:37:12;14.33;;;8.60;;
20229;SDS011;12195;55.790;37.572;2023-09-19T16:39:49;16.57;;;9.18;;
20229;SDS011;12195;55.790;37.572;2023-09-19T16:45:25;17.35;;;8.18;;
20229;SDS011;12195;55.790;37.572;2023-09-19T16:48:11;16.40;;;8.80;;
20229;SDS011;12195;55.790;37.572;2023-09-19T16:50:48;17.15;;;8.53;;
20229;SDS011;12195;55.790;37.572;2023-09-19T16:53:22;20.55;;;9.10;;
20229;SDS011;12195;55.790;37.572;2023-09-19T16:56:08;19.70;;;9.43;;
20229;SDS011;12195;55.790;37.572;2023-09-19T16:58:56;22.13;;;9.70;;
20229;SDS011;12195;55.790;37.572;2023-09-19T17:01:32;14.45;;;8.25;;
20229;SDS011;12195;55.790;37.572;2023-09-19T17:04:07;16.37;;;8.55;;
20229;SDS011;12195;55.790;37.572;2023-09-19T17:06:53;15.20;;;8.43;;
20229;SDS011;12195;55.790;37.572;2023-09-19T17:09:43;19.27;;;8.18;;